createdAt,value
2023-06-04T00:00:30.890Z,100.00
2023-06-04T00:05:27.219Z,100.00
2023-06-04T00:10:23.572Z,100.00
2023-06-04T00:15:20.203Z,100.00
2023-06-04T00:20:16.581Z,100.00
2023-06-04T00:25:12.982Z,100.00
2023-06-04T00:30:09.896Z,100.00
2023-06-04T00:35:06.824Z,100.00
2023-06-04T00:40:03.455Z,100.00
2023-06-04T00:44:59.893Z,100.00
2023-06-04T00:49:59.416Z,100.00
2023-06-04T00:54:55.815Z,100.00
2023-06-04T00:59:52.451Z,100.00
2023-06-04T01:05:12.708Z,100.00
2023-06-04T01:10:09.535Z,100.00
2023-06-04T01:15:07.261Z,100.00
2023-06-04T01:20:37.762Z,100.00
2023-06-04T01:25:42.542Z,100.00
2023-06-04T01:30:44.301Z,100.00
2023-06-04T01:35:41.143Z,100.00
2023-06-04T01:40:37.890Z,100.00
2023-06-04T01:45:34.503Z,100.00
2023-06-04T01:50:31.743Z,100.00
2023-06-04T01:55:30.587Z,100.00
2023-06-04T02:00:27.476Z,100.00
2023-06-04T02:05:24.031Z,100.00
2023-06-04T02:10:21.165Z,100.00
2023-06-04T02:15:17.528Z,100.00
2023-06-04T02:20:14.006Z,100.00
2023-06-04T02:25:10.509Z,100.00
2023-06-04T02:30:07.703Z,100.00
2023-06-04T02:35:05.000Z,100.00
2023-06-04T02:40:01.540Z,100.00
2023-06-04T02:44:57.955Z,100.00
2023-06-04T02:49:54.370Z,100.00
2023-06-04T02:54:50.722Z,100.00
2023-06-04T02:59:47.191Z,100.00
2023-06-04T03:04:43.690Z,100.00
2023-06-04T03:09:40.037Z,100.00
2023-06-04T03:14:36.469Z,100.00
2023-06-04T03:19:32.848Z,100.00
2023-06-04T03:24:29.275Z,100.00
2023-06-04T03:29:25.779Z,100.00
2023-06-04T03:34:25.851Z,100.00
2023-06-04T03:39:22.773Z,100.00
2023-06-04T03:44:20.583Z,100.00
2023-06-04T03:49:18.348Z,100.00
2023-06-04T03:54:17.695Z,100.00
2023-06-04T03:59:14.184Z,100.00
2023-06-04T04:04:10.768Z,100.00
2023-06-04T04:09:07.548Z,100.00
2023-06-04T04:14:03.922Z,100.00
2023-06-04T04:19:00.304Z,100.00
2023-06-04T04:23:56.884Z,100.00
2023-06-04T04:28:59.040Z,100.00
2023-06-04T04:33:58.586Z,100.00
2023-06-04T04:38:59.411Z,100.00
2023-06-04T04:44:06.543Z,100.00
2023-06-04T04:49:03.270Z,100.00
2023-06-04T04:54:03.384Z,100.00
2023-06-04T04:58:59.732Z,100.00
2023-06-04T05:03:56.262Z,100.00
2023-06-04T05:08:52.636Z,100.00
2023-06-04T05:13:49.177Z,100.00
2023-06-04T05:18:46.257Z,100.00
2023-06-04T05:23:43.379Z,100.00
2023-06-04T05:28:44.542Z,100.00
2023-06-04T05:33:41.474Z,100.00
2023-06-04T05:38:38.805Z,100.00
2023-06-04T05:43:35.350Z,100.00
2023-06-04T05:48:31.795Z,100.00
2023-06-04T05:53:28.166Z,93.47
2023-06-04T05:58:24.540Z,95.74
2023-06-04T06:03:21.390Z,92.27
2023-06-04T06:08:17.949Z,80.97
2023-06-04T06:13:14.717Z,78.40
2023-06-04T06:18:11.126Z,75.74
2023-06-04T06:23:08.306Z,77.90
2023-06-04T06:28:04.734Z,77.40
2023-06-04T06:33:01.647Z,79.97
2023-06-04T06:37:58.066Z,72.55
2023-06-04T06:42:54.603Z,70.14
2023-06-04T06:47:51.227Z,67.61
2023-06-04T06:52:47.642Z,67.42
2023-06-04T06:57:44.402Z,66.79
2023-06-04T07:02:40.987Z,64.79
2023-06-04T07:07:37.647Z,63.67
2023-06-04T07:12:34.134Z,61.54
2023-06-04T07:17:30.993Z,62.07
2023-06-04T07:22:27.625Z,58.95
2023-06-04T07:27:24.370Z,58.42
2023-06-04T07:32:20.816Z,57.55
2023-06-04T07:37:17.240Z,58.48
2023-06-04T07:42:14.627Z,56.05
2023-06-04T07:47:11.190Z,55.31
2023-06-04T07:52:08.164Z,50.58
2023-06-04T07:57:04.684Z,50.77
2023-06-04T08:02:01.291Z,49.72
2023-06-04T08:06:58.101Z,49.91
2023-06-04T08:11:54.457Z,50.39
2023-06-04T08:16:50.910Z,49.70
2023-06-04T08:21:48.260Z,50.86
2023-06-04T08:26:44.633Z,46.06
2023-06-04T08:31:41.453Z,49.79
2023-06-04T08:36:37.965Z,48.24
2023-06-04T08:41:50.323Z,48.83
2023-06-04T08:46:51.979Z,46.17
2023-06-04T08:51:48.508Z,46.99
2023-06-04T08:56:46.328Z,46.97
2023-06-04T09:01:45.378Z,44.26
2023-06-04T09:06:43.290Z,45.16
2023-06-04T09:11:50.266Z,44.79
2023-06-04T09:16:51.694Z,44.41
2023-06-04T09:21:55.746Z,42.58
2023-06-04T09:26:52.645Z,43.71
2023-06-04T09:31:59.379Z,40.06
2023-06-04T09:36:56.317Z,41.24
2023-06-04T09:42:03.241Z,41.30
2023-06-04T09:47:00.285Z,43.31
2023-06-04T09:51:56.773Z,40.31
2023-06-04T09:56:53.152Z,43.35
2023-06-04T10:01:50.435Z,40.87
2023-06-04T10:06:47.259Z,41.42
2023-06-04T10:11:54.085Z,40.88
2023-06-04T10:16:52.182Z,40.89
2023-06-04T10:21:48.855Z,41.88
2023-06-04T10:26:45.280Z,40.89
2023-06-04T10:31:42.507Z,40.10
2023-06-04T10:36:46.672Z,40.62
2023-06-04T10:41:43.177Z,43.02
2023-06-04T10:46:41.950Z,43.33
2023-06-04T10:51:38.829Z,41.50
2023-06-04T10:56:36.541Z,40.39
2023-06-04T11:01:33.269Z,40.01
2023-06-04T11:06:29.640Z,38.83
2023-06-04T11:11:26.131Z,40.17
2023-06-04T11:16:22.770Z,39.29
2023-06-04T11:21:19.379Z,40.52
2023-06-04T11:26:15.800Z,39.02
2023-06-04T11:31:12.949Z,37.16
2023-06-04T11:36:09.885Z,38.04
2023-06-04T11:41:07.912Z,38.39
2023-06-04T11:46:07.633Z,36.11
2023-06-04T11:51:11.264Z,40.88
2023-06-04T11:56:08.125Z,39.09
2023-06-04T12:01:04.834Z,38.43
2023-06-04T12:06:17.427Z,36.68
2023-06-04T12:11:27.641Z,37.07
2023-06-04T12:16:24.184Z,38.65
2023-06-04T12:21:27.564Z,38.39
2023-06-04T12:26:29.932Z,40.12
2023-06-04T12:31:26.325Z,36.82
2023-06-04T12:36:22.695Z,40.44
2023-06-04T12:41:19.053Z,39.01
2023-06-04T12:46:15.673Z,37.79
2023-06-04T12:51:12.248Z,38.07
2023-06-04T12:56:09.613Z,36.91
2023-06-04T13:01:06.890Z,36.85
2023-06-04T13:06:03.552Z,38.70
2023-06-04T13:11:00.244Z,37.26
2023-06-04T13:15:57.866Z,38.75
2023-06-04T13:20:54.283Z,36.29
2023-06-04T13:25:50.715Z,37.21
2023-06-04T13:30:47.444Z,37.69
2023-06-04T13:35:45.801Z,38.62
2023-06-04T13:40:44.011Z,35.48
2023-06-04T13:45:41.326Z,37.54
2023-06-04T13:50:37.675Z,36.86
2023-06-04T13:55:35.209Z,36.96
2023-06-04T14:00:32.468Z,37.91
2023-06-04T14:05:28.988Z,35.31
2023-06-04T14:10:25.466Z,35.74
2023-06-04T14:15:21.836Z,34.49
2023-06-04T14:20:18.255Z,37.05
2023-06-04T14:25:14.668Z,34.76
2023-06-04T14:30:11.612Z,33.68
2023-06-04T14:35:08.416Z,35.88
2023-06-04T14:40:05.945Z,33.48
2023-06-04T14:45:03.057Z,34.07
2023-06-04T14:49:59.376Z,33.83
2023-06-04T14:54:55.925Z,33.83
2023-06-04T14:59:52.334Z,33.27
2023-06-04T15:04:48.810Z,32.57
2023-06-04T15:09:45.197Z,31.71
2023-06-04T15:14:41.698Z,32.67
2023-06-04T15:19:38.306Z,33.22
2023-06-04T15:24:34.668Z,33.90
2023-06-04T15:29:31.164Z,33.91
2023-06-04T15:34:27.509Z,35.24
2023-06-04T15:39:24.050Z,32.45
2023-06-04T15:44:20.644Z,34.43
2023-06-04T15:49:17.967Z,32.75
2023-06-04T15:54:14.397Z,33.29
2023-06-04T15:59:10.912Z,33.24
2023-06-04T16:04:07.412Z,33.28
2023-06-04T16:09:04.487Z,32.68
2023-06-04T16:14:00.833Z,33.68
2023-06-04T16:18:57.239Z,32.48
2023-06-04T16:23:53.992Z,30.71
2023-06-04T16:28:50.417Z,31.34
2023-06-04T16:33:46.949Z,29.18
2023-06-04T16:38:43.479Z,31.75
2023-06-04T16:43:39.811Z,30.65
2023-06-04T16:48:39.069Z,29.10
2023-06-04T16:53:35.916Z,29.39
2023-06-04T16:58:34.541Z,27.40
2023-06-04T17:03:31.137Z,25.66
2023-06-04T17:08:27.588Z,24.38
2023-06-04T17:13:23.996Z,24.54
2023-06-04T17:18:21.672Z,24.67
2023-06-04T17:23:26.532Z,23.22
2023-06-04T17:28:23.264Z,22.45
2023-06-04T17:33:19.750Z,23.02
2023-06-04T17:38:16.467Z,22.98
2023-06-04T17:43:12.804Z,22.82
2023-06-04T17:48:09.420Z,23.49
2023-06-04T17:53:05.977Z,22.96
2023-06-04T17:58:02.388Z,23.21
2023-06-04T18:02:58.756Z,23.86
2023-06-04T18:07:55.151Z,24.30
2023-06-04T18:12:51.617Z,23.94
2023-06-04T18:17:48.055Z,25.52
2023-06-04T18:22:44.543Z,25.46
2023-06-04T18:27:41.289Z,26.01
2023-06-04T18:32:37.759Z,28.04
2023-06-04T18:37:34.123Z,28.94
2023-06-04T18:42:31.589Z,29.70
2023-06-04T18:47:28.264Z,29.87
2023-06-04T18:52:24.773Z,32.35
2023-06-04T18:57:21.851Z,33.28
2023-06-04T19:02:18.179Z,33.76
2023-06-04T19:07:14.913Z,35.56
2023-06-04T19:12:11.381Z,38.13
2023-06-04T19:17:08.245Z,40.16
2023-06-04T19:22:04.800Z,43.14
2023-06-04T19:27:01.134Z,45.37
2023-06-04T19:31:57.611Z,46.90
2023-06-04T19:36:54.443Z,48.96
2023-06-04T19:41:50.907Z,52.09
2023-06-04T19:46:49.490Z,61.28
2023-06-04T19:51:46.192Z,75.28
2023-06-04T19:56:42.756Z,98.41
2023-06-04T20:01:39.151Z,100.00
2023-06-04T20:06:35.869Z,100.00
2023-06-04T20:11:33.253Z,100.00
2023-06-04T20:16:30.702Z,100.00
2023-06-04T20:21:33.424Z,100.00
2023-06-04T20:26:33.749Z,100.00
2023-06-04T20:31:30.534Z,100.00
2023-06-04T20:36:28.661Z,100.00
2023-06-04T20:41:25.615Z,100.00
2023-06-04T20:46:22.327Z,100.00
2023-06-04T20:51:18.780Z,100.00
2023-06-04T20:56:15.724Z,100.00
2023-06-04T21:01:15.132Z,100.00
2023-06-04T21:06:11.618Z,100.00
2023-06-04T21:11:08.298Z,100.00
2023-06-04T21:16:04.858Z,100.00
2023-06-04T21:21:01.243Z,100.00
2023-06-04T21:25:57.887Z,100.00
2023-06-04T21:30:54.215Z,100.00
2023-06-04T21:35:50.565Z,100.00
2023-06-04T21:40:47.002Z,100.00
2023-06-04T21:45:43.505Z,100.00
2023-06-04T21:50:39.885Z,100.00
2023-06-04T21:55:36.713Z,100.00
2023-06-04T22:00:33.210Z,100.00
2023-06-04T22:05:29.577Z,100.00
2023-06-04T22:10:26.020Z,100.00
2023-06-04T22:15:22.346Z,100.00
2023-06-04T22:20:18.819Z,100.00
2023-06-04T22:25:15.414Z,100.00
2023-06-04T22:30:12.145Z,100.00
2023-06-04T22:35:08.491Z,100.00
2023-06-04T22:40:05.371Z,100.00
2023-06-04T22:45:01.792Z,100.00
2023-06-04T22:49:58.156Z,100.00
2023-06-04T22:54:55.042Z,100.00
2023-06-04T22:59:52.742Z,100.00
2023-06-04T23:04:49.208Z,100.00
2023-06-04T23:09:45.605Z,100.00
2023-06-04T23:14:41.979Z,100.00
2023-06-04T23:19:38.366Z,100.00
2023-06-04T23:24:34.693Z,100.00
2023-06-04T23:29:31.987Z,100.00
2023-06-04T23:34:28.326Z,100.00
2023-06-04T23:39:24.708Z,100.00
2023-06-04T23:44:21.104Z,100.00
2023-06-04T23:49:17.485Z,100.00
2023-06-04T23:54:18.537Z,100.00
2023-06-04T23:59:14.962Z,100.00
